sensor_id;sensor_type;location;lat;lon;timestamp;pressure;altitude;pressure_sealevel;temperature;humidity
46087;BME280;31824;49.648;8.640;2023-07-13T00:02:43;100260.19;;;20.16;100.00
46087;BME280;31824;49.648;8.640;2023-07-13T00:05:45;100269.19;;;20.02;100.00
46087;BME280;31824;49.648;8.640;2023-07-13T00:09:07;100259.72;;;19.92;100.00
46087;BME280;31824;49.648;8.640;2023-07-13T00:12:23;100263.81;;;19.85;100.00
46087;BME280;31824;49.648;8.640;2023-07-13T00:15:26;100263.28;;;19.76;100.00
46087;BME280;31824;49.648;8.640;2023-07-13T00:18:28;100273.41;;;19.82;100.00
46087;BME280;31824;49.648;8.640;2023-07-13T00:21:32;100278.56;;;19.64;100.00
46087;BME280;31824;49.648;8.640;2023-07-13T00:24:35;100276.38;;;19.56;100.00
46087;BME280;31824;49.648;8.640;2023-07-13T00:27:37;100276.19;;;19.53;100.00
46087;BME280;31824;49.648;8.640;2023-07-13T00:30:57;100278.16;;;19.41;100.00
46087;BME280;31824;49.648;8.640;2023-07-13T00:33:59;100276.13;;;19.52;100.00
46087;BME280;31824;49.648;8.640;2023-07-13T00:37:01;100273.66;;;19.40;100.00
46087;BME280;31824;49.648;8.640;2023-07-13T00:40:10;100286.72;;;19.35;100.00
46087;BME280;31824;49.648;8.640;2023-07-13T00:43:15;100274.72;;;19.59;100.00
46087;BME280;31824;49.648;8.640;2023-07-13T00:46:22;100269.97;;;19.53;100.00
46087;BME280;31824;49.648;8.640;2023-07-13T00:49:27;100285.59;;;19.47;100.00
46087;BME280;31824;49.648;8.640;2023-07-13T00:52:29;100282.25;;;19.51;100.00
46087;BME280;31824;49.648;8.640;2023-07-13T00:55:34;100273.38;;;19.50;100.00
46087;BME280;31824;49.648;8.640;2023-07-13T00:58:36;100273.66;;;19.40;100.00
46087;BME280;31824;49.648;8.640;2023-07-13T01:01:38;100275.59;;;19.28;100.00
46087;BME280;31824;49.648;8.640;2023-07-13T01:04:41;100271.84;;;19.09;100.00
46087;BME280;31824;49.648;8.640;2023-07-13T01:07:48;100270.22;;;18.96;100.00
46087;BME280;31824;49.648;8.640;2023-07-13T01:10:54;100281.84;;;18.98;100.00
46087;BME280;31824;49.648;8.640;2023-07-13T01:13:56;100275.88;;;19.02;100.00
46087;BME280;31824;49.648;8.640;2023-07-13T01:16:58;100280.28;;;19.02;100.00
46087;BME280;31824;49.648;8.640;2023-07-13T01:20:02;100276.00;;;18.89;100.00
46087;BME280;31824;49.648;8.640;2023-07-13T01:23:10;100282.22;;;18.46;100.00
46087;BME280;31824;49.648;8.640;2023-07-13T01:26:12;100272.75;;;18.36;100.00
46087;BME280;31824;49.648;8.640;2023-07-13T01:29:14;100275.59;;;18.39;100.00
46087;BME280;31824;49.648;8.640;2023-07-13T01:32:17;100281.00;;;18.41;100.00
46087;BME280;31824;49.648;8.640;2023-07-13T01:35:24;100287.22;;;17.98;100.00
46087;BME280;31824;49.648;8.640;2023-07-13T01:38:29;100293.94;;;18.07;100.00
46087;BME280;31824;49.648;8.640;2023-07-13T01:41:31;100282.16;;;17.89;100.00
46087;BME280;31824;49.648;8.640;2023-07-13T01:44:33;100279.94;;;17.96;100.00
46087;BME280;31824;49.648;8.640;2023-07-13T01:47:35;100280.44;;;18.03;100.00
46087;BME280;31824;49.648;8.640;2023-07-13T01:50:37;100288.34;;;17.75;100.00
46087;BME280;31824;49.648;8.640;2023-07-13T01:53:43;100292.75;;;17.61;100.00
46087;BME280;31824;49.648;8.640;2023-07-13T01:56:45;100293.56;;;17.60;100.00
46087;BME280;31824;49.648;8.640;2023-07-13T01:59:47;100292.16;;;17.52;100.00
46087;BME280;31824;49.648;8.640;2023-07-13T02:02:49;100303.47;;;17.63;100.00
46087;BME280;31824;49.648;8.640;2023-07-13T02:05:52;100303.06;;;17.70;100.00
46087;BME280;31824;49.648;8.640;2023-07-13T02:08:55;100309.09;;;17.54;100.00
46087;BME280;31824;49.648;8.640;2023-07-13T02:11:57;100313.59;;;17.55;100.00
46087;BME280;31824;49.648;8.640;2023-07-13T02:15:05;100319.09;;;17.45;100.00
46087;BME280;31824;49.648;8.640;2023-07-13T02:18:07;100319.81;;;17.15;100.00
46087;BME280;31824;49.648;8.640;2023-07-13T02:21:09;100319.00;;;17.16;100.00
46087;BME280;31824;49.648;8.640;2023-07-13T02:24:12;100326.13;;;17.17;100.00
46087;BME280;31824;49.648;8.640;2023-07-13T02:27:19;100323.72;;;17.20;100.00
46087;BME280;31824;49.648;8.640;2023-07-13T02:30:21;100321.44;;;17.13;100.00
46087;BME280;31824;49.648;8.640;2023-07-13T02:33:28;100325.03;;;16.88;100.00
46087;BME280;31824;49.648;8.640;2023-07-13T02:36:30;100332.41;;;16.93;100.00
46087;BME280;31824;49.648;8.640;2023-07-13T02:39:34;100336.34;;;16.86;100.00
46087;BME280;31824;49.648;8.640;2023-07-13T02:42:37;100336.47;;;16.62;100.00
46087;BME280;31824;49.648;8.640;2023-07-13T02:45:43;100337.22;;;16.48;100.00
46087;BME280;31824;49.648;8.640;2023-07-13T02:48:45;100334.06;;;16.53;100.00
46087;BME280;31824;49.648;8.640;2023-07-13T02:51:48;100332.56;;;16.57;100.00
46087;BME280;31824;49.648;8.640;2023-07-13T02:54:51;100336.59;;;16.64;100.00
46087;BME280;31824;49.648;8.640;2023-07-13T02:57:52;100327.41;;;16.47;100.00
46087;BME280;31824;49.648;8.640;2023-07-13T03:01:14;100328.31;;;16.22;100.00
46087;BME280;31824;49.648;8.640;2023-07-13T03:04:19;100329.44;;;16.37;100.00
46087;BME280;31824;49.648;8.640;2023-07-13T03:07:21;100332.22;;;16.27;100.00
46087;BME280;31824;49.648;8.640;2023-07-13T03:10:26;100325.19;;;16.28;100.00
46087;BME280;31824;49.648;8.640;2023-07-13T03:13:28;100327.13;;;16.05;100.00
46087;BME280;31824;49.648;8.640;2023-07-13T03:16:30;100327.34;;;16.08;100.00
46087;BME280;31824;49.648;8.640;2023-07-13T03:19:33;100336.97;;;16.19;100.00
46087;BME280;31824;49.648;8.640;2023-07-13T03:22:36;100330.88;;;16.20;100.00
46087;BME280;31824;49.648;8.640;2023-07-13T03:25:40;100328.22;;;15.83;100.00
46087;BME280;31824;49.648;8.640;2023-07-13T03:28:42;100327.03;;;15.80;100.00
46087;BME280;31824;49.648;8.640;2023-07-13T03:31:49;100334.28;;;15.94;100.00
46087;BME280;31824;49.648;8.640;2023-07-13T03:34:50;100334.28;;;15.94;100.00
46087;BME280;31824;49.648;8.640;2023-07-13T03:37:53;100338.19;;;15.64;100.00
46087;BME280;31824;49.648;8.640;2023-07-13T03:40:56;100339.94;;;15.75;100.00
46087;BME280;31824;49.648;8.640;2023-07-13T03:43:58;100335.25;;;15.83;100.00
46087;BME280;31824;49.648;8.640;2023-07-13T03:47:01;100346.75;;;15.83;100.00
46087;BME280;31824;49.648;8.640;2023-07-13T03:50:04;100342.69;;;15.77;100.00
46087;BME280;31824;49.648;8.640;2023-07-13T03:53:06;100341.78;;;15.76;100.00
46087;BME280;31824;49.648;8.640;2023-07-13T03:56:10;100344.44;;;15.76;100.00
46087;BME280;31824;49.648;8.640;2023-07-13T03:59:12;100343.97;;;15.70;100.00
46087;BME280;31824;49.648;8.640;2023-07-13T04:02:14;100347.75;;;15.50;100.00
46087;BME280;31824;49.648;8.640;2023-07-13T04:05:16;100354.78;;;15.49;100.00
46087;BME280;31824;49.648;8.640;2023-07-13T04:08:19;100348.34;;;15.58;100.00
46087;BME280;31824;49.648;8.640;2023-07-13T04:11:24;100352.94;;;15.60;100.00
46087;BME280;31824;49.648;8.640;2023-07-13T04:14:26;100362.38;;;15.57;100.00
46087;BME280;31824;49.648;8.640;2023-07-13T04:17:28;100358.81;;;15.56;100.00
46087;BME280;31824;49.648;8.640;2023-07-13T04:20:30;100354.78;;;15.49;100.00
46087;BME280;31824;49.648;8.640;2023-07-13T04:23:35;100357.66;;;15.52;100.00
46087;BME280;31824;49.648;8.640;2023-07-13T04:26:38;100363.53;;;15.36;100.00
46087;BME280;31824;49.648;8.640;2023-07-13T04:29:41;100360.06;;;15.26;100.00
46087;BME280;31824;49.648;8.640;2023-07-13T04:32:43;100366.41;;;15.28;100.00
46087;BME280;31824;49.648;8.640;2023-07-13T04:35:45;100366.97;;;15.24;100.00
46087;BME280;31824;49.648;8.640;2023-07-13T04:38:48;100370.34;;;15.33;100.00
46087;BME280;31824;49.648;8.640;2023-07-13T04:41:51;100376.56;;;15.45;100.00
46087;BME280;31824;49.648;8.640;2023-07-13T04:44:53;100383.13;;;15.50;100.00
46087;BME280;31824;49.648;8.640;2023-07-13T04:47:55;100380.22;;;15.35;100.00
46087;BME280;31824;49.648;8.640;2023-07-13T04:50:58;100378.59;;;15.38;100.00
46087;BME280;31824;49.648;8.640;2023-07-13T04:54:00;100383.34;;;15.53;100.00
46087;BME280;31824;49.648;8.640;2023-07-13T04:57:04;100384.38;;;15.56;100.00
46087;BME280;31824;49.648;8.640;2023-07-13T05:00:27;100385.19;;;15.43;100.00
46087;BME280;31824;49.648;8.640;2023-07-13T05:03:29;100385.97;;;15.42;100.00
46087;BME280;31824;49.648;8.640;2023-07-13T05:06:32;100380.47;;;15.50;100.00
46087;BME280;31824;49.648;8.640;2023-07-13T05:09:33;100378.28;;;15.68;100.00
46087;BME280;31824;49.648;8.640;2023-07-13T05:12:37;100384.63;;;15.82;100.00
46087;BME280;31824;49.648;8.640;2023-07-13T05:15:38;100385.44;;;15.69;100.00
46087;BME280;31824;49.648;8.640;2023-07-13T05:18:40;100385.31;;;15.80;100.00
46087;BME280;31824;49.648;8.640;2023-07-13T05:21:44;100384.16;;;15.76;100.00
46087;BME280;31824;49.648;8.640;2023-07-13T05:24:46;100390.25;;;15.75;100.00
46087;BME280;31824;49.648;8.640;2023-07-13T05:27:49;100401.69;;;15.86;100.00
46087;BME280;31824;49.648;8.640;2023-07-13T05:30:50;100399.84;;;15.85;100.00
46087;BME280;31824;49.648;8.640;2023-07-13T05:33:52;100409.94;;;15.79;100.00
46087;BME280;31824;49.648;8.640;2023-07-13T05:36:54;100400.41;;;15.93;100.00
46087;BME280;31824;49.648;8.640;2023-07-13T05:39:56;100404.09;;;16.07;100.00
46087;BME280;31824;49.648;8.640;2023-07-13T05:42:59;100405.09;;;16.20;100.00
46087;BME280;31824;49.648;8.640;2023-07-13T05:46:01;100403.50;;;16.23;100.00
46087;BME280;31824;49.648;8.640;2023-07-13T05:49:02;100407.03;;;16.23;100.00
46087;BME280;31824;49.648;8.640;2023-07-13T05:52:05;100416.75;;;16.23;100.00
46087;BME280;31824;49.648;8.640;2023-07-13T05:55:08;100410.59;;;16.24;100.00
46087;BME280;31824;49.648;8.640;2023-07-13T05:58:11;100414.53;;;16.29;100.00
46087;BME280;31824;49.648;8.640;2023-07-13T06:01:14;100424.53;;;16.33;100.00
46087;BME280;31824;49.648;8.640;2023-07-13T06:04:17;100423.47;;;16.43;100.00
46087;BME280;31824;49.648;8.640;2023-07-13T06:07:19;100417.84;;;16.38;100.00
46087;BME280;31824;49.648;8.640;2023-07-13T06:10:20;100424.91;;;16.37;100.00
46087;BME280;31824;49.648;8.640;2023-07-13T06:13:24;100432.25;;;16.42;100.00
46087;BME280;31824;49.648;8.640;2023-07-13T06:16:26;100436.88;;;16.32;100.00
46087;BME280;31824;49.648;8.640;2023-07-13T06:19:28;100425.59;;;16.35;100.00
46087;BME280;31824;49.648;8.640;2023-07-13T06:22:30;100430.97;;;16.48;100.00
46087;BME280;31824;49.648;8.640;2023-07-13T06:25:32;100437.75;;;16.57;100.00
46087;BME280;31824;49.648;8.640;2023-07-13T06:28:36;100444.44;;;16.63;100.00
46087;BME280;31824;49.648;8.640;2023-07-13T06:31:38;100446.78;;;16.84;100.00
46087;BME280;31824;49.648;8.640;2023-07-13T06:34:40;100448.00;;;17.01;100.00
46087;BME280;31824;49.648;8.640;2023-07-13T06:37:43;100440.56;;;17.34;100.00
46087;BME280;31824;49.648;8.640;2023-07-13T06:40:45;100461.22;;;17.51;100.00
46087;BME280;31824;49.648;8.640;2023-07-13T06:43:48;100460.44;;;17.66;100.00
46087;BME280;31824;49.648;8.640;2023-07-13T06:46:50;100458.38;;;17.62;100.00
46087;BME280;31824;49.648;8.640;2023-07-13T06:49:51;100468.97;;;17.48;100.00
46087;BME280;31824;49.648;8.640;2023-07-13T06:52:53;100460.00;;;17.60;100.00
46087;BME280;31824;49.648;8.640;2023-07-13T06:55:55;100472.41;;;17.72;100.00
46087;BME280;31824;49.648;8.640;2023-07-13T06:58:58;100465.13;;;17.70;100.00
46087;BME280;31824;49.648;8.640;2023-07-13T07:02:00;100465.56;;;17.76;100.00
46087;BME280;31824;49.648;8.640;2023-07-13T07:05:02;100469.81;;;18.68;100.00
46087;BME280;31824;49.648;8.640;2023-07-13T07:08:04;100475.56;;;18.74;100.00
46087;BME280;31824;49.648;8.640;2023-07-13T07:11:08;100475.94;;;18.94;100.00
46087;BME280;31824;49.648;8.640;2023-07-13T07:14:12;100475.47;;;19.01;100.00
46087;BME280;31824;49.648;8.640;2023-07-13T07:17:51;100475.72;;;19.19;100.00
46087;BME280;31824;49.648;8.640;2023-07-13T07:20:53;100488.16;;;19.33;100.00
46087;BME280;31824;49.648;8.640;2023-07-13T07:23:54;100484.41;;;19.30;100.00
46087;BME280;31824;49.648;8.640;2023-07-13T07:26:56;100483.06;;;19.08;100.00
46087;BME280;31824;49.648;8.640;2023-07-13T07:30:03;100478.50;;;19.20;100.00
46087;BME280;31824;49.648;8.640;2023-07-13T07:33:08;100483.91;;;19.22;100.00
46087;BME280;31824;49.648;8.640;2023-07-13T07:36:09;100483.13;;;19.38;100.00
46087;BME280;31824;49.648;8.640;2023-07-13T07:39:14;100484.75;;;19.36;100.00
46087;BME280;31824;49.648;8.640;2023-07-13T07:42:16;100481.63;;;19.43;100.00
46087;BME280;31824;49.648;8.640;2023-07-13T07:45:20;100482.13;;;19.66;100.00
46087;BME280;31824;49.648;8.640;2023-07-13T07:48:22;100487.53;;;19.67;100.00
46087;BME280;31824;49.648;8.640;2023-07-13T07:51:24;100482.94;;;19.65;100.00
46087;BME280;31824;49.648;8.640;2023-07-13T07:54:25;100475.59;;;20.05;100.00
46087;BME280;31824;49.648;8.640;2023-07-13T07:57:47;100483.59;;;20.20;100.00
46087;BME280;31824;49.648;8.640;2023-07-13T08:00:54;100482.75;;;20.36;100.00
46087;BME280;31824;49.648;8.640;2023-07-13T08:03:59;100494.72;;;20.74;100.00
46087;BME280;31824;49.648;8.640;2023-07-13T08:07:04;100498.16;;;20.88;100.00
46087;BME280;31824;49.648;8.640;2023-07-13T08:10:07;100494.66;;;20.58;100.00
46087;BME280;31824;49.648;8.640;2023-07-13T08:13:09;100487.47;;;20.57;100.00
46087;BME280;31824;49.648;8.640;2023-07-13T08:16:14;100489.72;;;20.34;100.00
46087;BME280;31824;49.648;8.640;2023-07-13T08:19:16;100483.31;;;20.31;100.00
46087;BME280;31824;49.648;8.640;2023-07-13T08:22:17;100482.47;;;20.63;100.00
46087;BME280;31824;49.648;8.640;2023-07-13T08:25:19;100485.81;;;20.90;100.00
46087;BME280;31824;49.648;8.640;2023-07-13T08:28:22;100490.03;;;21.36;100.00
46087;BME280;31824;49.648;8.640;2023-07-13T08:31:25;100481.22;;;21.54;100.00
46087;BME280;31824;49.648;8.640;2023-07-13T08:34:27;100484.41;;;21.81;100.00
46087;BME280;31824;49.648;8.640;2023-07-13T08:37:29;100472.66;;;21.96;100.00
46087;BME280;31824;49.648;8.640;2023-07-13T08:40:31;100475.19;;;21.92;100.00
46087;BME280;31824;49.648;8.640;2023-07-13T08:43:36;100470.75;;;21.93;100.00
46087;BME280;31824;49.648;8.640;2023-07-13T08:46:41;100476.16;;;21.77;100.00
46087;BME280;31824;49.648;8.640;2023-07-13T08:49:44;100480.75;;;21.79;100.00
46087;BME280;31824;49.648;8.640;2023-07-13T08:52:46;100484.66;;;21.86;100.00
46087;BME280;31824;49.648;8.640;2023-07-13T08:55:50;100481.38;;;21.91;100.00
46087;BME280;31824;49.648;8.640;2023-07-13T08:58:58;100474.19;;;22.08;100.00
46087;BME280;31824;49.648;8.640;2023-07-13T09:02:16;100479.19;;;22.37;100.00
46087;BME280;31824;49.648;8.640;2023-07-13T09:05:28;100476.03;;;22.09;100.00
46087;BME280;31824;49.648;8.640;2023-07-13T09:08:45;100480.22;;;22.04;100.00
46087;BME280;31824;49.648;8.640;2023-07-13T09:11:55;100475.59;;;22.18;100.00
46087;BME280;31824;49.648;8.640;2023-07-13T09:14:58;100477.47;;;22.37;100.00
46087;BME280;31824;49.648;8.640;2023-07-13T09:18:07;100474.22;;;22.45;100.00
46087;BME280;31824;49.648;8.640;2023-07-13T09:21:13;100474.31;;;22.46;100.00
46087;BME280;31824;49.648;8.640;2023-07-13T09:24:29;100474.44;;;22.49;100.00
46087;BME280;31824;49.648;8.640;2023-07-13T09:27:39;100471.00;;;22.52;100.00
46087;BME280;31824;49.648;8.640;2023-07-13T09:30:47;100461.38;;;22.75;100.00
46087;BME280;31824;49.648;8.640;2023-07-13T09:33:55;100470.44;;;22.77;100.00
46087;BME280;31824;49.648;8.640;2023-07-13T09:36:57;100469.59;;;22.98;100.00
46087;BME280;31824;49.648;8.640;2023-07-13T09:40:01;100469.09;;;22.87;100.00
46087;BME280;31824;49.648;8.640;2023-07-13T09:43:08;100466.03;;;23.17;100.00
46087;BME280;31824;49.648;8.640;2023-07-13T09:46:20;100472.38;;;23.38;100.00
46087;BME280;31824;49.648;8.640;2023-07-13T09:49:25;100469.75;;;23.01;100.00
46087;BME280;31824;49.648;8.640;2023-07-13T09:52:28;100457.75;;;22.92;100.00
46087;BME280;31824;49.648;8.640;2023-07-13T09:55:42;100464.63;;;23.45;100.00
46087;BME280;31824;49.648;8.640;2023-07-13T09:58:44;100464.94;;;23.52;100.00
46087;BME280;31824;49.648;8.640;2023-07-13T10:01:46;100476.91;;;23.80;100.00
46087;BME280;31824;49.648;8.640;2023-07-13T10:04:56;100482.09;;;23.56;100.00
46087;BME280;31824;49.648;8.640;2023-07-13T10:07:59;100489.22;;;23.55;100.00
46087;BME280;31824;49.648;8.640;2023-07-13T10:11:08;100472.50;;;23.61;100.00
46087;BME280;31824;49.648;8.640;2023-07-13T10:14:28;100467.47;;;23.88;100.00
46087;BME280;31824;49.648;8.640;2023-07-13T10:17:32;100471.91;;;23.68;100.00
46087;BME280;31824;49.648;8.640;2023-07-13T10:20:36;100477.47;;;23.52;100.00
46087;BME280;31824;49.648;8.640;2023-07-13T10:23:38;100460.19;;;23.66;100.00
46087;BME280;31824;49.648;8.640;2023-07-13T10:26:46;100469.72;;;24.21;100.00
46087;BME280;31824;49.648;8.640;2023-07-13T10:29:53;100466.25;;;24.24;100.00
46087;BME280;31824;49.648;8.640;2023-07-13T10:32:57;100462.78;;;24.26;100.00
46087;BME280;31824;49.648;8.640;2023-07-13T10:36:05;100455.94;;;23.91;100.00
46087;BME280;31824;49.648;8.640;2023-07-13T10:39:20;100465.97;;;24.39;100.00
46087;BME280;31824;49.648;8.640;2023-07-13T10:42:27;100464.44;;;24.02;100.00
46087;BME280;31824;49.648;8.640;2023-07-13T10:45:34;100463.00;;;24.33;100.00
46087;BME280;31824;49.648;8.640;2023-07-13T10:48:37;100456.84;;;24.35;100.00
46087;BME280;31824;49.648;8.640;2023-07-13T10:51:42;100472.88;;;24.55;100.00
46087;BME280;31824;49.648;8.640;2023-07-13T10:54:45;100451.84;;;24.22;100.00
46087;BME280;31824;49.648;8.640;2023-07-13T10:57:48;100459.38;;;24.09;100.00
46087;BME280;31824;49.648;8.640;2023-07-13T11:00:56;100460.69;;;24.19;100.00
46087;BME280;31824;49.648;8.640;2023-07-13T11:04:01;100455.84;;;24.32;100.00
46087;BME280;31824;49.648;8.640;2023-07-13T11:07:19;100466.50;;;24.30;100.00
46087;BME280;31824;49.648;8.640;2023-07-13T11:10:46;100474.38;;;24.25;100.00
46087;BME280;31824;49.648;8.640;2023-07-13T11:13:57;100460.56;;;24.16;100.00
46087;BME280;31824;49.648;8.640;2023-07-13T11:17:46;100475.69;;;23.93;100.00
46087;BME280;31824;49.648;8.640;2023-07-13T11:20:49;100457.31;;;24.02;100.00
46087;BME280;31824;49.648;8.640;2023-07-13T11:23:54;100459.25;;;24.27;100.00
46087;BME280;31824;49.648;8.640;2023-07-13T11:26:56;100460.22;;;23.87;100.00
46087;BME280;31824;49.648;8.640;2023-07-13T11:30:08;100459.31;;;24.52;100.00
46087;BME280;31824;49.648;8.640;2023-07-13T11:33:17;100454.13;;;25.02;100.00
46087;BME280;31824;49.648;8.640;2023-07-13T11:36:21;100443.47;;;25.05;100.00
46087;BME280;31824;49.648;8.640;2023-07-13T11:39:28;100449.06;;;24.87;100.00
46087;BME280;31824;49.648;8.640;2023-07-13T11:42:32;100450.72;;;24.83;100.00
46087;BME280;31824;49.648;8.640;2023-07-13T11:45:34;100434.06;;;24.69;100.00
46087;BME280;31824;49.648;8.640;2023-07-13T11:48:50;100434.41;;;24.33;100.00
46087;BME280;31824;49.648;8.640;2023-07-13T11:51:56;100445.06;;;24.75;100.00
46087;BME280;31824;49.648;8.640;2023-07-13T11:55:02;100446.88;;;24.54;100.00
46087;BME280;31824;49.648;8.640;2023-07-13T11:58:04;100453.22;;;25.01;100.00
46087;BME280;31824;49.648;8.640;2023-07-13T12:01:05;100455.13;;;25.04;100.00
46087;BME280;31824;49.648;8.640;2023-07-13T12:04:20;100459.09;;;25.15;100.00
46087;BME280;31824;49.648;8.640;2023-07-13T12:07:23;100464.94;;;25.03;100.00
46087;BME280;31824;49.648;8.640;2023-07-13T12:10:28;100466.41;;;24.72;100.00
46087;BME280;31824;49.648;8.640;2023-07-13T12:13:35;100463.88;;;24.54;100.00
46087;BME280;31824;49.648;8.640;2023-07-13T12:16:38;100458.88;;;24.41;100.00
46087;BME280;31824;49.648;8.640;2023-07-13T12:19:41;100464.41;;;24.67;100.00
46087;BME280;31824;49.648;8.640;2023-07-13T12:22:45;100460.94;;;25.16;100.00
46087;BME280;31824;49.648;8.640;2023-07-13T12:25:50;100458.09;;;25.36;100.00
46087;BME280;31824;49.648;8.640;2023-07-13T12:28:53;100453.69;;;25.14;100.00
46087;BME280;31824;49.648;8.640;2023-07-13T12:31:59;100465.63;;;24.98;100.00
46087;BME280;31824;49.648;8.640;2023-07-13T12:35:14;100439.88;;;24.57;100.00
46087;BME280;31824;49.648;8.640;2023-07-13T12:38:16;100457.84;;;24.37;100.00
46087;BME280;31824;49.648;8.640;2023-07-13T12:41:20;100469.44;;;24.36;100.00
46087;BME280;31824;49.648;8.640;2023-07-13T12:44:26;100457.22;;;24.22;100.00
46087;BME280;31824;49.648;8.640;2023-07-13T12:47:29;100460.69;;;24.19;100.00
46087;BME280;31824;49.648;8.640;2023-07-13T12:50:36;100460.09;;;24.26;100.00
46087;BME280;31824;49.648;8.640;2023-07-13T12:53:47;100468.44;;;24.34;100.00
46087;BME280;31824;49.648;8.640;2023-07-13T12:56:53;100467.31;;;24.50;100.00
46087;BME280;31824;49.648;8.640;2023-07-13T12:59:55;100475.09;;;24.65;100.00
46087;BME280;31824;49.648;8.640;2023-07-13T13:02:58;100472.75;;;24.52;100.00
46087;BME280;31824;49.648;8.640;2023-07-13T13:06:27;100476.78;;;24.62;100.00
46087;BME280;31824;49.648;8.640;2023-07-13T13:09:31;100486.28;;;24.76;100.00
46087;BME280;31824;49.648;8.640;2023-07-13T13:12:35;100475.94;;;24.64;100.00
46087;BME280;31824;49.648;8.640;2023-07-13T13:15:37;100476.88;;;24.43;100.00
46087;BME280;31824;49.648;8.640;2023-07-13T13:18:39;100478.56;;;24.40;100.00
46087;BME280;31824;49.648;8.640;2023-07-13T13:21:42;100484.06;;;24.22;100.00
46087;BME280;31824;49.648;8.640;2023-07-13T13:24:44;100487.47;;;24.18;100.00
46087;BME280;31824;49.648;8.640;2023-07-13T13:27:47;100492.44;;;24.30;100.00
46087;BME280;31824;49.648;8.640;2023-07-13T13:30:50;100485.72;;;24.18;100.00
46087;BME280;31824;49.648;8.640;2023-07-13T13:34:13;100487.22;;;24.12;100.00
46087;BME280;31824;49.648;8.640;2023-07-13T13:37:19;100494.09;;;24.05;100.00
46087;BME280;31824;49.648;8.640;2023-07-13T13:40:22;100492.81;;;24.18;100.00
46087;BME280;31824;49.648;8.640;2023-07-13T13:43:30;100489.03;;;24.34;100.00
46087;BME280;31824;49.648;8.640;2023-07-13T13:46:31;100485.09;;;24.25;100.00
46087;BME280;31824;49.648;8.640;2023-07-13T13:49:33;100485.50;;;24.14;100.00
46087;BME280;31824;49.648;8.640;2023-07-13T13:52:38;100477.50;;;24.36;100.00
46087;BME280;31824;49.648;8.640;2023-07-13T13:55:40;100480.19;;;24.36;100.00
46087;BME280;31824;49.648;8.640;2023-07-13T13:58:44;100485.09;;;24.47;100.00
46087;BME280;31824;49.648;8.640;2023-07-13T14:01:47;100492.19;;;24.02;100.00
46087;BME280;31824;49.648;8.640;2023-07-13T14:04:53;100494.22;;;24.08;100.00
46087;BME280;31824;49.648;8.640;2023-07-13T14:07:56;100493.25;;;24.06;100.00
46087;BME280;31824;49.648;8.640;2023-07-13T14:10:58;100485.22;;;23.86;100.00
46087;BME280;31824;49.648;8.640;2023-07-13T14:14:01;100480.91;;;24.11;100.00
46087;BME280;31824;49.648;8.640;2023-07-13T14:17:13;100483.78;;;24.37;100.00
46087;BME280;31824;49.648;8.640;2023-07-13T14:20:21;100481.09;;;24.37;100.00
46087;BME280;31824;49.648;8.640;2023-07-13T14:23:25;100483.25;;;24.24;100.00
46087;BME280;31824;49.648;8.640;2023-07-13T14:26:27;100483.69;;;24.13;100.00
46087;BME280;31824;49.648;8.640;2023-07-13T14:29:30;100476.22;;;24.05;100.00
46087;BME280;31824;49.648;8.640;2023-07-13T14:32:33;100474.25;;;24.22;100.00
46087;BME280;31824;49.648;8.640;2023-07-13T14:35:35;100470.44;;;24.17;100.00
46087;BME280;31824;49.648;8.640;2023-07-13T14:38:37;100492.94;;;24.42;100.00
46087;BME280;31824;49.648;8.640;2023-07-13T14:41:39;100495.44;;;24.37;100.00
46087;BME280;31824;49.648;8.640;2023-07-13T14:44:42;100485.09;;;24.25;100.00
46087;BME280;31824;49.648;8.640;2023-07-13T14:47:44;100487.19;;;24.33;100.00
46087;BME280;31824;49.648;8.640;2023-07-13T14:50:46;100491.03;;;24.39;100.00
46087;BME280;31824;49.648;8.640;2023-07-13T14:53:48;100486.59;;;24.40;100.00
46087;BME280;31824;49.648;8.640;2023-07-13T14:56:52;100483.78;;;24.37;100.00
46087;BME280;31824;49.648;8.640;2023-07-13T14:59:55;100485.28;;;24.30;100.00
46087;BME280;31824;49.648;8.640;2023-07-13T15:02:58;100488.97;;;24.32;100.00
46087;BME280;31824;49.648;8.640;2023-07-13T15:06:02;100488.56;;;24.44;100.00
46087;BME280;31824;49.648;8.640;2023-07-13T15:09:04;100482.25;;;24.21;100.00
46087;BME280;31824;49.648;8.640;2023-07-13T15:12:07;100482.31;;;24.22;100.00
46087;BME280;31824;49.648;8.640;2023-07-13T15:15:11;100481.91;;;24.13;100.00
46087;BME280;31824;49.648;8.640;2023-07-13T15:18:14;100473.59;;;24.28;100.00
46087;BME280;31824;49.648;8.640;2023-07-13T15:21:20;100479.06;;;24.31;100.00
46087;BME280;31824;49.648;8.640;2023-07-13T15:24:23;100479.63;;;24.22;100.00
46087;BME280;31824;49.648;8.640;2023-07-13T15:28:03;100470.63;;;24.43;100.00
46087;BME280;31824;49.648;8.640;2023-07-13T15:31:16;100473.91;;;24.58;100.00
46087;BME280;31824;49.648;8.640;2023-07-13T15:34:23;100475.47;;;24.53;100.00
46087;BME280;31824;49.648;8.640;2023-07-13T15:37:26;100471.31;;;24.83;100.00
46087;BME280;31824;49.648;8.640;2023-07-13T15:40:28;100472.66;;;25.18;100.00
46087;BME280;31824;49.648;8.640;2023-07-13T15:43:32;100459.75;;;25.08;100.00
46087;BME280;31824;49.648;8.640;2023-07-13T15:46:36;100464.09;;;24.59;100.00
46087;BME280;31824;49.648;8.640;2023-07-13T15:49:38;100465.91;;;24.60;100.00
46087;BME280;31824;49.648;8.640;2023-07-13T15:52:42;100464.25;;;24.85;100.00
46087;BME280;31824;49.648;8.640;2023-07-13T15:55:44;100462.13;;;24.55;100.00